sensor_id;sensor_type;location;lat;lon;timestamp;pressure;altitude;pressure_sealevel;temperature;humidity
62942;BME280;49042;47.318;19.874;2022-12-24T00:00:56;99838.81;;;3.55;100.00
62942;BME280;49042;47.318;19.874;2022-12-24T00:03:58;99834.97;;;3.46;100.00
62942;BME280;49042;47.318;19.874;2022-12-24T00:07:00;99843.50;;;3.45;100.00
62942;BME280;49042;47.318;19.874;2022-12-24T00:10:03;99846.97;;;3.64;100.00
62942;BME280;49042;47.318;19.874;2022-12-24T00:13:05;99851.94;;;3.59;100.00
62942;BME280;49042;47.318;19.874;2022-12-24T00:16:07;99852.72;;;3.58;100.00
62942;BME280;49042;47.318;19.874;2022-12-24T00:19:09;99858.00;;;3.96;100.00
62942;BME280;49042;47.318;19.874;2022-12-24T00:22:10;99868.19;;;4.30;100.00
62942;BME280;49042;47.318;19.874;2022-12-24T00:25:12;99885.16;;;3.88;100.00
62942;BME280;49042;47.318;19.874;2022-12-24T00:28:14;99894.19;;;3.80;100.00
62942;BME280;49042;47.318;19.874;2022-12-24T00:31:17;99879.84;;;3.85;100.00
62942;BME280;49042;47.318;19.874;2022-12-24T00:34:22;99883.97;;;3.81;100.00
62942;BME280;49042;47.318;19.874;2022-12-24T00:37:24;99868.94;;;4.27;100.00
62942;BME280;49042;47.318;19.874;2022-12-24T00:40:25;99863.97;;;4.14;100.00
62942;BME280;49042;47.318;19.874;2022-12-24T00:43:28;99849.00;;;4.06;100.00
62942;BME280;49042;47.318;19.874;2022-12-24T00:46:32;99846.66;;;3.93;100.00
62942;BME280;49042;47.318;19.874;2022-12-24T00:49:34;99834.25;;;3.85;100.00
62942;BME280;49042;47.318;19.874;2022-12-24T00:52:35;99820.28;;;3.80;100.00
62942;BME280;49042;47.318;19.874;2022-12-24T00:55:37;99806.75;;;3.68;100.00
62942;BME280;49042;47.318;19.874;2022-12-24T00:58:39;99800.91;;;3.53;100.00
62942;BME280;49042;47.318;19.874;2022-12-24T01:01:40;99811.63;;;3.80;100.00
62942;BME280;49042;47.318;19.874;2022-12-24T01:04:42;99808.03;;;3.94;100.00
62942;BME280;49042;47.318;19.874;2022-12-24T01:08:03;99800.56;;;4.19;100.00
62942;BME280;49042;47.318;19.874;2022-12-24T01:11:06;99804.50;;;3.74;100.00
62942;BME280;49042;47.318;19.874;2022-12-24T01:14:08;99804.66;;;3.95;100.00
62942;BME280;49042;47.318;19.874;2022-12-24T01:17:09;99806.19;;;3.73;100.00
62942;BME280;49042;47.318;19.874;2022-12-24T01:20:14;99798.16;;;3.67;100.00
62942;BME280;49042;47.318;19.874;2022-12-24T01:23:16;99805.06;;;3.68;100.00
62942;BME280;49042;47.318;19.874;2022-12-24T01:26:18;99811.19;;;3.52;100.00
62942;BME280;49042;47.318;19.874;2022-12-24T01:29:20;99804.78;;;3.62;100.00
62942;BME280;49042;47.318;19.874;2022-12-24T01:32:21;99836.25;;;3.73;100.00
62942;BME280;49042;47.318;19.874;2022-12-24T01:35:23;99851.63;;;3.71;100.00
62942;BME280;49042;47.318;19.874;2022-12-24T01:38:25;99859.72;;;3.78;100.00
62942;BME280;49042;47.318;19.874;2022-12-24T01:41:28;99866.63;;;3.97;100.00
62942;BME280;49042;47.318;19.874;2022-12-24T01:44:50;99861.75;;;4.03;100.00
62942;BME280;49042;47.318;19.874;2022-12-24T01:47:52;99852.47;;;4.07;100.00
62942;BME280;49042;47.318;19.874;2022-12-24T01:50:58;99848.63;;;4.17;100.00
62942;BME280;49042;47.318;19.874;2022-12-24T01:57:20;99814.12;;;4.53;100.00
62942;BME280;49042;47.318;19.874;2022-12-24T02:00:23;99803.84;;;4.35;100.00
62942;BME280;49042;47.318;19.874;2022-12-24T02:03:25;99778.50;;;4.26;100.00
62942;BME280;49042;47.318;19.874;2022-12-24T02:06:27;99772.09;;;4.17;100.00
62942;BME280;49042;47.318;19.874;2022-12-24T02:09:28;99762.19;;;3.89;100.00
62942;BME280;49042;47.318;19.874;2022-12-24T02:12:34;99758.91;;;3.93;100.00
62942;BME280;49042;47.318;19.874;2022-12-24T02:19:14;99727.69;;;3.87;100.00
62942;BME280;49042;47.318;19.874;2022-12-24T02:32:22;99749.91;;;4.61;100.00
62942;BME280;49042;47.318;19.874;2022-12-24T02:39:03;99744.47;;;3.96;100.00
62942;BME280;49042;47.318;19.874;2022-12-24T02:42:07;99729.09;;;3.80;100.00
62942;BME280;49042;47.318;19.874;2022-12-24T02:45:18;99723.78;;;3.77;100.00
62942;BME280;49042;47.318;19.874;2022-12-24T02:48:22;99751.88;;;3.89;100.00
62942;BME280;49042;47.318;19.874;2022-12-24T02:51:24;99739.56;;;4.21;100.00
62942;BME280;49042;47.318;19.874;2022-12-24T02:54:26;99757.94;;;4.27;100.00
62942;BME280;49042;47.318;19.874;2022-12-24T03:00:53;99767.06;;;4.59;100.00
62942;BME280;49042;47.318;19.874;2022-12-24T03:07:28;99746.97;;;4.33;100.00
62942;BME280;49042;47.318;19.874;2022-12-24T03:10:46;99759.75;;;4.50;100.00
62942;BME280;49042;47.318;19.874;2022-12-24T03:13:53;99800.19;;;4.11;100.00
62942;BME280;49042;47.318;19.874;2022-12-24T03:16:57;99774.09;;;4.23;100.00
62942;BME280;49042;47.318;19.874;2022-12-24T03:20:00;99758.91;;;4.31;100.00
62942;BME280;49042;47.318;19.874;2022-12-24T03:23:02;99756.63;;;4.57;100.00
62942;BME280;49042;47.318;19.874;2022-12-24T03:26:06;99758.47;;;4.60;100.00
62942;BME280;49042;47.318;19.874;2022-12-24T03:29:09;99762.16;;;4.65;100.00
62942;BME280;49042;47.318;19.874;2022-12-24T03:32:11;99758.59;;;4.83;100.00
62942;BME280;49042;47.318;19.874;2022-12-24T03:35:13;99751.31;;;4.94;100.00
62942;BME280;49042;47.318;19.874;2022-12-24T03:38:15;99760.31;;;4.63;100.00
62942;BME280;49042;47.318;19.874;2022-12-24T03:41:16;99751.41;;;4.76;100.00
62942;BME280;49042;47.318;19.874;2022-12-24T03:44:18;99740.50;;;4.63;100.00
62942;BME280;49042;47.318;19.874;2022-12-24T03:47:20;99729.31;;;4.63;100.00
62942;BME280;49042;47.318;19.874;2022-12-24T03:50:21;99729.63;;;4.70;100.00
62942;BME280;49042;47.318;19.874;2022-12-24T03:53:23;99721.88;;;4.90;100.00
62942;BME280;49042;47.318;19.874;2022-12-24T03:56:25;99734.25;;;4.78;100.00
62942;BME280;49042;47.318;19.874;2022-12-24T03:59:27;99732.78;;;4.63;100.00
62942;BME280;49042;47.318;19.874;2022-12-24T04:02:28;99728.72;;;4.48;100.00
62942;BME280;49042;47.318;19.874;2022-12-24T04:05:30;99732.63;;;4.60;100.00
62942;BME280;49042;47.318;19.874;2022-12-24T04:08:32;99739.09;;;4.30;100.00
62942;BME280;49042;47.318;19.874;2022-12-24T04:11:34;99747.88;;;4.34;100.00
62942;BME280;49042;47.318;19.874;2022-12-24T04:14:36;99743.72;;;4.37;100.00
62942;BME280;49042;47.318;19.874;2022-12-24T04:17:38;99738.44;;;4.54;100.00
62942;BME280;49042;47.318;19.874;2022-12-24T04:20:39;99748.22;;;4.62;100.00
62942;BME280;49042;47.318;19.874;2022-12-24T04:23:42;99752.56;;;4.82;100.00
62942;BME280;49042;47.318;19.874;2022-12-24T04:26:43;99750.19;;;4.67;100.00
62942;BME280;49042;47.318;19.874;2022-12-24T04:29:45;99759.38;;;4.80;100.00
62942;BME280;49042;47.318;19.874;2022-12-24T04:32:47;99756.75;;;5.00;100.00
62942;BME280;49042;47.318;19.874;2022-12-24T04:35:48;99754.41;;;4.65;100.00
62942;BME280;49042;47.318;19.874;2022-12-24T04:38:50;99770.63;;;4.82;100.00
62942;BME280;49042;47.318;19.874;2022-12-24T04:41:52;99765.50;;;4.63;100.00
62942;BME280;49042;47.318;19.874;2022-12-24T04:44:53;99768.53;;;4.74;100.00
62942;BME280;49042;47.318;19.874;2022-12-24T04:47:55;99771.44;;;4.81;100.00
62942;BME280;49042;47.318;19.874;2022-12-24T04:51:00;99782.72;;;5.03;100.00
62942;BME280;49042;47.318;19.874;2022-12-24T04:54:02;99775.81;;;5.24;100.00
62942;BME280;49042;47.318;19.874;2022-12-24T04:57:04;99775.78;;;5.44;100.00
62942;BME280;49042;47.318;19.874;2022-12-24T05:00:07;99775.44;;;5.57;100.00
62942;BME280;49042;47.318;19.874;2022-12-24T05:03:09;99779.09;;;5.63;100.00
62942;BME280;49042;47.318;19.874;2022-12-24T05:06:13;99777.28;;;5.60;100.00
62942;BME280;49042;47.318;19.874;2022-12-24T05:09:15;99766.16;;;5.63;100.00
62942;BME280;49042;47.318;19.874;2022-12-24T05:12:17;99765.37;;;5.65;100.00
62942;BME280;49042;47.318;19.874;2022-12-24T05:15:19;99767.97;;;5.65;100.00
62942;BME280;49042;47.318;19.874;2022-12-24T05:18:21;99760.53;;;5.73;100.00
62942;BME280;49042;47.318;19.874;2022-12-24T05:21:23;99767.16;;;5.66;100.00
62942;BME280;49042;47.318;19.874;2022-12-24T05:24:25;99769.59;;;5.62;100.00
62942;BME280;49042;47.318;19.874;2022-12-24T05:28:02;99784.22;;;5.61;100.00
62942;BME280;49042;47.318;19.874;2022-12-24T05:31:04;99790.28;;;5.62;100.00
62942;BME280;49042;47.318;19.874;2022-12-24T05:34:06;99793.84;;;5.65;100.00
62942;BME280;49042;47.318;19.874;2022-12-24T05:37:08;99791.97;;;5.61;100.00
62942;BME280;49042;47.318;19.874;2022-12-24T05:40:10;99804.03;;;5.61;100.00
62942;BME280;49042;47.318;19.874;2022-12-24T05:43:12;99791.22;;;5.64;100.00
62942;BME280;49042;47.318;19.874;2022-12-24T05:46:16;99788.50;;;5.61;100.00
62942;BME280;49042;47.318;19.874;2022-12-24T05:49:19;99787.63;;;5.60;100.00
62942;BME280;49042;47.318;19.874;2022-12-24T05:52:21;99793.56;;;5.57;100.00
62942;BME280;49042;47.318;19.874;2022-12-24T05:55:22;99788.88;;;5.49;100.00
62942;BME280;49042;47.318;19.874;2022-12-24T05:58:24;99791.53;;;5.50;100.00
62942;BME280;49042;47.318;19.874;2022-12-24T06:01:26;99793.88;;;5.44;100.00
62942;BME280;49042;47.318;19.874;2022-12-24T06:04:28;99791.00;;;5.38;100.00
62942;BME280;49042;47.318;19.874;2022-12-24T06:07:30;99788.50;;;5.39;100.00
62942;BME280;49042;47.318;19.874;2022-12-24T06:10:31;99792.03;;;5.41;100.00
62942;BME280;49042;47.318;19.874;2022-12-24T06:13:33;99805.84;;;5.42;100.00
62942;BME280;49042;47.318;19.874;2022-12-24T06:16:35;99806.81;;;5.44;100.00
62942;BME280;49042;47.318;19.874;2022-12-24T06:19:37;99819.78;;;5.45;100.00
62942;BME280;49042;47.318;19.874;2022-12-24T06:22:39;99813.69;;;5.43;100.00
62942;BME280;49042;47.318;19.874;2022-12-24T06:25:40;99822.47;;;5.47;100.00
62942;BME280;49042;47.318;19.874;2022-12-24T06:28:43;99821.50;;;5.45;100.00
62942;BME280;49042;47.318;19.874;2022-12-24T06:31:45;99824.84;;;5.42;100.00
62942;BME280;49042;47.318;19.874;2022-12-24T06:34:46;99822.25;;;5.42;100.00
62942;BME280;49042;47.318;19.874;2022-12-24T06:37:48;99825.66;;;5.41;100.00
62942;BME280;49042;47.318;19.874;2022-12-24T06:40:50;99829.06;;;5.40;100.00
62942;BME280;49042;47.318;19.874;2022-12-24T06:43:52;99833.41;;;5.41;100.00
62942;BME280;49042;47.318;19.874;2022-12-24T06:46:54;99830.56;;;5.35;100.00
62942;BME280;49042;47.318;19.874;2022-12-24T06:49:56;99844.97;;;5.50;100.00
62942;BME280;49042;47.318;19.874;2022-12-24T06:52:57;99829.81;;;5.38;100.00
62942;BME280;49042;47.318;19.874;2022-12-24T06:56:07;99829.56;;;5.31;100.00
62942;BME280;49042;47.318;19.874;2022-12-24T06:59:09;99832.25;;;5.34;100.00
62942;BME280;49042;47.318;19.874;2022-12-24T07:02:11;99831.81;;;5.23;100.00
62942;BME280;49042;47.318;19.874;2022-12-24T07:05:13;99828.84;;;5.14;100.00
62942;BME280;49042;47.318;19.874;2022-12-24T07:08:15;99844.44;;;5.16;100.00
62942;BME280;49042;47.318;19.874;2022-12-24T07:11:17;99843.66;;;5.18;100.00
62942;BME280;49042;47.318;19.874;2022-12-24T07:14:19;99854.91;;;5.19;100.00
62942;BME280;49042;47.318;19.874;2022-12-24T07:17:20;99855.56;;;5.14;100.00
62942;BME280;49042;47.318;19.874;2022-12-24T07:20:22;99860.06;;;5.19;100.00
62942;BME280;49042;47.318;19.874;2022-12-24T07:23:24;99869.53;;;5.18;100.00
62942;BME280;49042;47.318;19.874;2022-12-24T07:26:26;99869.66;;;5.21;100.00
62942;BME280;49042;47.318;19.874;2022-12-24T07:29:27;99874.16;;;5.25;100.00
62942;BME280;49042;47.318;19.874;2022-12-24T07:32:29;99869.72;;;5.23;100.00
62942;BME280;49042;47.318;19.874;2022-12-24T07:35:31;99874.19;;;5.27;100.00
62942;BME280;49042;47.318;19.874;2022-12-24T07:38:34;99877.13;;;5.35;100.00
62942;BME280;49042;47.318;19.874;2022-12-24T07:41:36;99888.69;;;5.43;100.00
62942;BME280;49042;47.318;19.874;2022-12-24T07:44:42;99883.31;;;5.39;100.00
62942;BME280;49042;47.318;19.874;2022-12-24T07:47:44;99888.69;;;5.43;100.00
62942;BME280;49042;47.318;19.874;2022-12-24T07:50:48;99890.53;;;5.46;100.00
62942;BME280;49042;47.318;19.874;2022-12-24T07:53:50;99897.66;;;5.52;100.00
62942;BME280;49042;47.318;19.874;2022-12-24T07:56:51;99901.94;;;5.51;100.00
62942;BME280;49042;47.318;19.874;2022-12-24T07:59:53;99904.69;;;5.54;100.00
62942;BME280;49042;47.318;19.874;2022-12-24T08:02:55;99910.91;;;5.60;100.00
62942;BME280;49042;47.318;19.874;2022-12-24T08:05:57;99904.38;;;5.68;100.00
62942;BME280;49042;47.318;19.874;2022-12-24T08:08:59;99911.41;;;5.51;100.00
62942;BME280;49042;47.318;19.874;2022-12-24T08:12:00;99909.91;;;5.56;100.00
62942;BME280;49042;47.318;19.874;2022-12-24T08:15:05;99915.53;;;5.67;100.00
62942;BME280;49042;47.318;19.874;2022-12-24T08:18:07;99929.94;;;5.82;100.00
62942;BME280;49042;47.318;19.874;2022-12-24T08:21:09;99932.78;;;5.88;100.00
62942;BME280;49042;47.318;19.874;2022-12-24T08:24:11;99938.66;;;6.05;100.00
62942;BME280;49042;47.318;19.874;2022-12-24T08:27:13;99940.69;;;6.11;100.00
62942;BME280;49042;47.318;19.874;2022-12-24T08:30:15;99947.16;;;6.23;100.00
62942;BME280;49042;47.318;19.874;2022-12-24T08:33:22;99955.69;;;6.41;100.00
62942;BME280;49042;47.318;19.874;2022-12-24T08:36:23;99954.03;;;6.43;100.00
62942;BME280;49042;47.318;19.874;2022-12-24T08:39:25;99960.66;;;6.58;100.00
62942;BME280;49042;47.318;19.874;2022-12-24T08:42:27;99962.69;;;6.44;100.00
62942;BME280;49042;47.318;19.874;2022-12-24T08:45:29;99977.78;;;6.55;100.00
62942;BME280;49042;47.318;19.874;2022-12-24T08:48:40;99988.44;;;6.18;100.00
62942;BME280;49042;47.318;19.874;2022-12-24T08:51:41;99997.59;;;6.31;100.00
62942;BME280;49042;47.318;19.874;2022-12-24T08:54:43;99997.59;;;6.31;100.00
62942;BME280;49042;47.318;19.874;2022-12-24T08:57:45;100007.06;;;6.52;100.00
62942;BME280;49042;47.318;19.874;2022-12-24T09:00:46;100015.38;;;6.23;100.00
62942;BME280;49042;47.318;19.874;2022-12-24T09:03:48;100014.13;;;6.35;100.00
62942;BME280;49042;47.318;19.874;2022-12-24T09:06:50;100010.97;;;6.20;100.00
62942;BME280;49042;47.318;19.874;2022-12-24T09:09:52;100013.81;;;6.48;100.00
62942;BME280;49042;47.318;19.874;2022-12-24T09:12:53;100017.63;;;6.57;100.00
62942;BME280;49042;47.318;19.874;2022-12-24T09:15:55;100019.19;;;6.74;100.00
62942;BME280;49042;47.318;19.874;2022-12-24T09:18:57;100016.50;;;6.73;100.00
62942;BME280;49042;47.318;19.874;2022-12-24T09:21:59;100018.66;;;6.62;100.00
62942;BME280;49042;47.318;19.874;2022-12-24T09:25:00;100029.47;;;6.73;100.00
62942;BME280;49042;47.318;19.874;2022-12-24T09:28:02;100025.53;;;6.83;100.00
62942;BME280;49042;47.318;19.874;2022-12-24T09:31:04;100022.16;;;6.85;100.00
62942;BME280;49042;47.318;19.874;2022-12-24T09:34:06;100021.44;;;6.88;100.00
62942;BME280;49042;47.318;19.874;2022-12-24T09:37:08;100021.44;;;6.88;100.00
62942;BME280;49042;47.318;19.874;2022-12-24T09:40:21;100030.22;;;6.92;100.00
62942;BME280;49042;47.318;19.874;2022-12-24T09:43:30;100037.28;;;6.96;100.00
62942;BME280;49042;47.318;19.874;2022-12-24T09:46:35;100058.06;;;6.98;100.00
62942;BME280;49042;47.318;19.874;2022-12-24T09:49:44;100047.66;;;6.96;100.00
62942;BME280;49042;47.318;19.874;2022-12-24T09:52:48;100053.00;;;7.01;100.00
62942;BME280;49042;47.318;19.874;2022-12-24T09:55:54;100066.88;;;7.01;100.00
62942;BME280;49042;47.318;19.874;2022-12-24T09:59:01;100066.94;;;7.03;100.00
62942;BME280;49042;47.318;19.874;2022-12-24T10:02:09;100069.78;;;7.09;100.00
62942;BME280;49042;47.318;19.874;2022-12-24T10:05:17;100079.44;;;7.13;100.00
62942;BME280;49042;47.318;19.874;2022-12-24T10:15:22;100082.16;;;7.39;100.00
62942;BME280;49042;47.318;19.874;2022-12-24T10:25:29;100072.69;;;7.65;100.00
62942;BME280;49042;47.318;19.874;2022-12-24T10:28:58;100069.69;;;7.77;100.00
62942;BME280;49042;47.318;19.874;2022-12-24T10:35:16;100085.59;;;7.86;100.00
62942;BME280;49042;47.318;19.874;2022-12-24T10:38:19;100081.56;;;7.95;100.00
62942;BME280;49042;47.318;19.874;2022-12-24T10:41:21;100085.00;;;7.95;100.00
62942;BME280;49042;47.318;19.874;2022-12-24T10:44:27;100087.97;;;8.05;100.00
62942;BME280;49042;47.318;19.874;2022-12-24T10:47:33;100093.38;;;8.11;100.00
62942;BME280;49042;47.318;19.874;2022-12-24T10:54:06;100095.50;;;8.48;100.00
62942;BME280;49042;47.318;19.874;2022-12-24T10:57:22;100092.78;;;8.44;100.00
62942;BME280;49042;47.318;19.874;2022-12-24T11:00:26;100098.59;;;8.37;100.00
62942;BME280;49042;47.318;19.874;2022-12-24T11:03:36;100107.00;;;8.56;100.00
62942;BME280;49042;47.318;19.874;2022-12-24T11:07:02;100113.66;;;8.72;100.00
62942;BME280;49042;47.318;19.874;2022-12-24T11:10:06;100118.97;;;8.75;100.00
62942;BME280;49042;47.318;19.874;2022-12-24T11:13:24;100115.81;;;8.33;100.00
62942;BME280;49042;47.318;19.874;2022-12-24T11:16:38;100113.75;;;8.24;100.00
62942;BME280;49042;47.318;19.874;2022-12-24T11:19:46;100115.53;;;8.25;100.00
62942;BME280;49042;47.318;19.874;2022-12-24T11:22:49;100109.72;;;8.33;100.00
62942;BME280;49042;47.318;19.874;2022-12-24T11:25:51;100113.44;;;8.41;100.00
62942;BME280;49042;47.318;19.874;2022-12-24T11:32:18;100106.81;;;8.50;100.00
62942;BME280;49042;47.318;19.874;2022-12-24T11:35:22;100107.41;;;8.41;100.00
62942;BME280;49042;47.318;19.874;2022-12-24T11:38:26;100107.91;;;8.56;100.00
62942;BME280;49042;47.318;19.874;2022-12-24T11:41:35;100107.00;;;8.56;100.00
62942;BME280;49042;47.318;19.874;2022-12-24T11:44:46;100107.31;;;8.64;100.00
62942;BME280;49042;47.318;19.874;2022-12-24T11:47:49;100105.88;;;8.48;100.00
62942;BME280;49042;47.318;19.874;2022-12-24T11:51:02;100111.91;;;8.46;100.00
62942;BME280;49042;47.318;19.874;2022-12-24T11:54:18;100104.94;;;8.45;100.00
62942;BME280;49042;47.318;19.874;2022-12-24T11:57:27;100122.81;;;8.36;100.00
62942;BME280;49042;47.318;19.874;2022-12-24T12:00:32;100127.31;;;8.40;100.00
62942;BME280;49042;47.318;19.874;2022-12-24T12:03:44;100127.34;;;8.42;100.00
62942;BME280;49042;47.318;19.874;2022-12-24T12:06:56;100124.03;;;8.46;100.00
62942;BME280;49042;47.318;19.874;2022-12-24T12:10:03;100139.06;;;8.55;100.00
62942;BME280;49042;47.318;19.874;2022-12-24T12:13:11;100136.69;;;8.61;100.00
62942;BME280;49042;47.318;19.874;2022-12-24T12:16:29;100124.53;;;8.60;100.00
62942;BME280;49042;47.318;19.874;2022-12-24T12:20:01;100132.03;;;8.52;100.00
62942;BME280;49042;47.318;19.874;2022-12-24T12:23:28;100137.09;;;8.48;100.00
62942;BME280;49042;47.318;19.874;2022-12-24T12:26:31;100138.78;;;8.47;100.00
62942;BME280;49042;47.318;19.874;2022-12-24T12:30:13;100143.81;;;8.42;100.00
62942;BME280;49042;47.318;19.874;2022-12-24T12:36:09;100144.81;;;8.46;100.00
62942;BME280;49042;47.318;19.874;2022-12-24T12:39:12;100144.97;;;8.51;100.00
62942;BME280;49042;47.318;19.874;2022-12-24T12:42:30;100153.00;;;8.57;100.00
62942;BME280;49042;47.318;19.874;2022-12-24T12:45:51;100153.19;;;8.62;100.00
62942;BME280;49042;47.318;19.874;2022-12-24T12:49:18;100143.00;;;8.68;100.00
62942;BME280;49042;47.318;19.874;2022-12-24T12:59:33;100157.44;;;8.86;100.00
62942;BME280;49042;47.318;19.874;2022-12-24T13:03:03;100160.94;;;8.86;100.00
62942;BME280;49042;47.318;19.874;2022-12-24T13:16:28;100163.22;;;9.31;100.00
62942;BME280;49042;47.318;19.874;2022-12-24T13:19:43;100172.72;;;9.30;100.00
62942;BME280;49042;47.318;19.874;2022-12-24T13:23:19;100176.41;;;9.37;100.00
62942;BME280;49042;47.318;19.874;2022-12-24T13:26:21;100175.59;;;9.38;100.00
62942;BME280;49042;47.318;19.874;2022-12-24T13:32:45;100184.47;;;9.45;100.00
62942;BME280;49042;47.318;19.874;2022-12-24T13:36:22;100183.69;;;9.48;99.63
62942;BME280;49042;47.318;19.874;2022-12-24T13:39:23;100181.31;;;9.56;96.38
62942;BME280;49042;47.318;19.874;2022-12-24T13:49:49;100195.81;;;9.75;90.32
62942;BME280;49042;47.318;19.874;2022-12-24T13:52:55;100208.12;;;9.81;90.04
62942;BME280;49042;47.318;19.874;2022-12-24T13:56:07;100208.06;;;9.79;88.24
62942;BME280;49042;47.318;19.874;2022-12-24T13:59:23;100209.56;;;9.71;88.82
62942;BME280;49042;47.318;19.874;2022-12-24T14:02:28;100213.56;;;9.59;89.30
62942;BME280;49042;47.318;19.874;2022-12-24T14:05:37;100222.00;;;9.52;89.31
62942;BME280;49042;47.318;19.874;2022-12-24T14:08:42;100225.22;;;9.43;89.29
62942;BME280;49042;47.318;19.874;2022-12-24T14:18:42;100237.59;;;9.24;88.64
62942;BME280;49042;47.318;19.874;2022-12-24T14:21:53;100242.88;;;9.26;87.32
62942;BME280;49042;47.318;19.874;2022-12-24T14:24:58;100236.34;;;9.13;87.96
62942;BME280;49042;47.318;19.874;2022-12-24T14:28:05;100251.69;;;9.05;87.65
62942;BME280;49042;47.318;19.874;2022-12-24T14:31:17;100263.78;;;9.03;87.17
62942;BME280;49042;47.318;19.874;2022-12-24T14:34:20;100267.44;;;9.08;85.74
62942;BME280;49042;47.318;19.874;2022-12-24T14:37:21;100268.81;;;8.98;87.16
62942;BME280;49042;47.318;19.874;2022-12-24T14:40:28;100283.56;;;8.97;87.26
62942;BME280;49042;47.318;19.874;2022-12-24T14:43:56;100288.69;;;8.96;87.72
62942;BME280;49042;47.318;19.874;2022-12-24T14:47:14;100291.13;;;8.91;87.62
62942;BME280;49042;47.318;19.874;2022-12-24T14:50:31;100307.81;;;8.72;89.25
62942;BME280;49042;47.318;19.874;2022-12-24T14:57:29;100312.28;;;8.76;88.54
62942;BME280;49042;47.318;19.874;2022-12-24T15:00:31;100323.44;;;8.73;88.41
62942;BME280;49042;47.318;19.874;2022-12-24T15:03:39;100323.19;;;8.65;89.09
62942;BME280;49042;47.318;19.874;2022-12-24T15:06:51;100337.50;;;8.78;87.58
62942;BME280;49042;47.318;19.874;2022-12-24T15:09:53;100343.13;;;8.66;88.34
62942;BME280;49042;47.318;19.874;2022-12-24T15:12:57;100343.25;;;8.70;86.96
62942;BME280;49042;47.318;19.874;2022-12-24T15:16:13;100340.53;;;8.91;85.25
62942;BME280;49042;47.318;19.874;2022-12-24T15:19:26;100344.19;;;8.72;86.70
62942;BME280;49042;47.318;19.874;2022-12-24T15:22:30;100353.53;;;8.66;87.01
62942;BME280;49042;47.318;19.874;2022-12-24T15:25:32;100363.50;;;8.55;88.00
62942;BME280;49042;47.318;19.874;2022-12-24T15:28:36;100369.66;;;8.57;87.27
62942;BME280;49042;47.318;19.874;2022-12-24T15:31:38;100376.56;;;8.57;87.06
62942;BME280;49042;47.318;19.874;2022-12-24T15:34:42;100378.63;;;8.66;85.74
62942;BME280;49042;47.318;19.874;2022-12-24T15:37:45;100374.78;;;8.56;86.53
62942;BME280;49042;47.318;19.874;2022-12-24T15:40:48;100376.41;;;8.75;85.00
62942;BME280;49042;47.318;19.874;2022-12-24T15:43:51;100379.97;;;9.02;88.24
62942;BME280;49042;47.318;19.874;2022-12-24T15:46:58;100384.16;;;9.23;86.74
62942;BME280;49042;47.318;19.874;2022-12-24T15:50:00;100377.25;;;8.99;83.22
62942;BME280;49042;47.318;19.874;2022-12-24T15:53:03;100379.06;;;8.77;83.68
62942;BME280;49042;47.318;19.874;2022-12-24T15:56:35;100379.94;;;8.77;84.01
62942;BME280;49042;47.318;19.874;2022-12-24T15:59:37;100377.59;;;8.61;85.80
62942;BME280;49042;47.318;19.874;2022-12-24T16:02:40;100384.12;;;8.51;86.71
62942;BME280;49042;47.318;19.874;2022-12-24T16:05:43;100384.88;;;8.48;85.87
62942;BME280;49042;47.318;19.874;2022-12-24T16:08:45;100388.47;;;8.52;85.46
62942;BME280;49042;47.318;19.874;2022-12-24T16:11:47;100377.25;;;8.53;85.49
62942;BME280;49042;47.318;19.874;2022-12-24T16:14:55;100372.06;;;8.53;85.47
62942;BME280;49042;47.318;19.874;2022-12-24T16:17:58;100379.87;;;8.53;85.47
62942;BME280;49042;47.318;19.874;2022-12-24T16:21:00;100381.50;;;8.28;87.78
62942;BME280;49042;47.318;19.874;2022-12-24T16:24:13;100380.00;;;8.11;89.12
62942;BME280;49042;47.318;19.874;2022-12-24T16:27:15;100380.13;;;8.14;89.27
62942;BME280;49042;47.318;19.874;2022-12-24T16:30:17;100380.34;;;8.19;88.39
62942;BME280;49042;47.318;19.874;2022-12-24T16:33:20;100378.31;;;8.12;88.75
62942;BME280;49042;47.318;19.874;2022-12-24T16:36:22;100382.53;;;8.10;89.11
62942;BME280;49042;47.318;19.874;2022-12-24T16:39:32;100381.16;;;7.97;90.09
62942;BME280;49042;47.318;19.874;2022-12-24T16:42:34;100383.44;;;7.89;90.92
62942;BME280;49042;47.318;19.874;2022-12-24T16:46:03;100390.72;;;7.76;91.76
62942;BME280;49042;47.318;19.874;2022-12-24T16:49:05;100399.13;;;7.70;92.04
62942;BME280;49042;47.318;19.874;2022-12-24T16:52:18;100400.59;;;7.64;92.52
62942;BME280;49042;47.318;19.874;2022-12-24T16:55:22;100403.97;;;7.41;94.03
62942;BME280;49042;47.318;19.874;2022-12-24T16:58:24;100408.12;;;7.17;95.84
62942;BME280;49042;47.318;19.874;2022-12-24T17:01:26;100413.75;;;7.07;96.61
62942;BME280;49042;47.318;19.874;2022-12-24T17:04:30;100420.31;;;6.99;97.22
62942;BME280;49042;47.318;19.874;2022-12-24T17:07:32;100428.34;;;6.85;98.31
62942;BME280;49042;47.318;19.874;2022-12-24T17:10:40;100427.31;;;6.81;99.06
62942;BME280;49042;47.318;19.874;2022-12-24T17:13:49;100436.69;;;6.79;99.68
62942;BME280;49042;47.318;19.874;2022-12-24T17:16:51;100439.38;;;6.81;99.71
62942;BME280;49042;47.318;19.874;2022-12-24T17:19:54;100441.09;;;6.62;100.00
62942;BME280;49042;47.318;19.874;2022-12-24T17:22:56;100443.13;;;6.49;100.00
62942;BME280;49042;47.318;19.874;2022-12-24T17:25:59;100442.09;;;6.46;100.00
62942;BME280;49042;47.318;19.874;2022-12-24T17:29:01;100433.94;;;6.38;100.00
62942;BME280;49042;47.318;19.874;2022-12-24T17:32:05;100431.44;;;6.39;100.00
62942;BME280;49042;47.318;19.874;2022-12-24T17:35:07;100441.56;;;6.53;100.00
62942;BME280;49042;47.318;19.874;2022-12-24T17:38:09;100441.59;;;6.73;100.00